Česky Dansk Deutsch English Español Suomi Français Magyar Italiano Nederlands norsk Polski Português svenska Türkçe

 

Het Weer

Kosice, Barca (Slowakije)

17:30, 22 augustus 2016 (GMT)

NWNNE
WE
SWSSE
Home            
Kosice, Barca Kosice Kamenica Nad Cirochou Miskolc Uzhhorod Poprad / Tatry Nyiregyhaza / Napkor Lucenec Debrecen Sliac Sliac Satu Mare Rzeszow-Jasionka Oradea Szolnok Krakow Prievidza Budapest / Ferihegy Dolny Hricov Baia Mare Budapest Met Center Budaors Bekescsaba

Om een weerknop op uw website of weblog te plaatsen, copieer onderstaande code en plak die in uw pagina. In het eerste vakje staat HTML-code, in het tweede vakje UBB-code.


Add to Google

Details

Wind speed:4 bf, 13 kn, 6.7 m/s, 15.0 miles/h, 24.1 km/h
Wind direction:NNE, 020°
Visibility:Greater than 10000 m, 10 km, 32800 ft, 6.2 miles
Clouds:CAVOC
Temperature:18°C, 64°F
Dew-point:12°C, 54°F
Atmospheric pressure:1022 hPa, 766.6 mmHg, 30.18 inHg, 1.009 atm
Relative humidity:68.0 %
METAR:LZKZ 221730Z 02013KT CAVOK 18/12 Q1022

Snelkoppelingen

Actuele weersinformatie van de hele wereld. Voeg locaties toe met het plus (+) symbool. Deze snelkoppelingen kunnen worden toegevoegd aan Google.

Lid van de Technetium groep

website free tracking
StatCounter NetStat W3C Validator

19-08-2022 09:32:34
astro.technetium.be money.technetium.be phote.technetium.be tafeltennistafel.technetium.be www.ligfiets.net